sensor_id;sensor_type;location;lat;lon;timestamp;temperature;humidity
25320;DHT22;13256;49.012;8.610;2022-07-29T00:02:10;21.70;99.90
25320;DHT22;13256;49.012;8.610;2022-07-29T00:04:37;21.70;99.90
25320;DHT22;13256;49.012;8.610;2022-07-29T00:07:07;21.70;99.90
25320;DHT22;13256;49.012;8.610;2022-07-29T00:09:34;21.70;99.90
25320;DHT22;13256;49.012;8.610;2022-07-29T00:12:21;21.70;99.90
25320;DHT22;13256;49.012;8.610;2022-07-29T00:14:56;21.70;99.90
25320;DHT22;13256;49.012;8.610;2022-07-29T00:17:25;21.60;99.90
25320;DHT22;13256;49.012;8.610;2022-07-29T00:19:52;21.60;99.90
25320;DHT22;13256;49.012;8.610;2022-07-29T00:22:19;21.50;99.90
25320;DHT22;13256;49.012;8.610;2022-07-29T00:24:47;21.50;99.90
25320;DHT22;13256;49.012;8.610;2022-07-29T00:30:36;21.30;99.90
25320;DHT22;13256;49.012;8.610;2022-07-29T00:33:05;21.20;99.90
25320;DHT22;13256;49.012;8.610;2022-07-29T00:35:35;21.10;99.90
25320;DHT22;13256;49.012;8.610;2022-07-29T00:38:40;21.10;99.90
25320;DHT22;13256;49.012;8.610;2022-07-29T00:42:19;21.00;99.90
25320;DHT22;13256;49.012;8.610;2022-07-29T00:45:13;20.90;99.90
25320;DHT22;13256;49.012;8.610;2022-07-29T00:47:41;20.80;99.90
25320;DHT22;13256;49.012;8.610;2022-07-29T00:50:13;20.80;99.90
25320;DHT22;13256;49.012;8.610;2022-07-29T00:52:44;20.80;99.90
25320;DHT22;13256;49.012;8.610;2022-07-29T00:58:58;20.90;99.90
25320;DHT22;13256;49.012;8.610;2022-07-29T01:01:51;20.90;99.90
25320;DHT22;13256;49.012;8.610;2022-07-29T01:04:18;21.00;99.90
25320;DHT22;13256;49.012;8.610;2022-07-29T01:06:49;21.00;99.90
25320;DHT22;13256;49.012;8.610;2022-07-29T01:09:20;21.00;99.90
25320;DHT22;13256;49.012;8.610;2022-07-29T01:12:07;21.00;99.90
25320;DHT22;13256;49.012;8.610;2022-07-29T01:14:35;21.00;99.90
25320;DHT22;13256;49.012;8.610;2022-07-29T01:23:28;20.90;99.90
25320;DHT22;13256;49.012;8.610;2022-07-29T01:29:02;20.80;99.90
25320;DHT22;13256;49.012;8.610;2022-07-29T01:34:50;20.60;99.90
25320;DHT22;13256;49.012;8.610;2022-07-29T01:37:26;20.50;99.90
25320;DHT22;13256;49.012;8.610;2022-07-29T01:39:58;20.40;99.90
25320;DHT22;13256;49.012;8.610;2022-07-29T01:42:41;20.40;99.90
25320;DHT22;13256;49.012;8.610;2022-07-29T01:45:17;20.30;99.90
25320;DHT22;13256;49.012;8.610;2022-07-29T01:48:05;20.20;99.90
25320;DHT22;13256;49.012;8.610;2022-07-29T01:50:52;20.00;99.90
25320;DHT22;13256;49.012;8.610;2022-07-29T01:53:42;19.90;99.90
25320;DHT22;13256;49.012;8.610;2022-07-29T01:56:10;19.80;99.90
25320;DHT22;13256;49.012;8.610;2022-07-29T01:58:45;19.70;99.90
25320;DHT22;13256;49.012;8.610;2022-07-29T02:01:19;19.60;99.90
25320;DHT22;13256;49.012;8.610;2022-07-29T02:03:47;19.60;99.90
25320;DHT22;13256;49.012;8.610;2022-07-29T02:06:21;19.60;99.90
25320;DHT22;13256;49.012;8.610;2022-07-29T02:08:50;19.50;99.90
25320;DHT22;13256;49.012;8.610;2022-07-29T02:11:20;19.50;99.90
25320;DHT22;13256;49.012;8.610;2022-07-29T02:19:56;19.50;99.90
25320;DHT22;13256;49.012;8.610;2022-07-29T02:22:24;19.50;99.90
25320;DHT22;13256;49.012;8.610;2022-07-29T02:24:53;19.60;99.90
25320;DHT22;13256;49.012;8.610;2022-07-29T02:27:34;19.60;99.90
25320;DHT22;13256;49.012;8.610;2022-07-29T02:30:03;19.70;99.90
25320;DHT22;13256;49.012;8.610;2022-07-29T02:32:37;19.80;99.90
25320;DHT22;13256;49.012;8.610;2022-07-29T02:35:08;19.80;99.90
25320;DHT22;13256;49.012;8.610;2022-07-29T02:37:39;19.80;99.90
25320;DHT22;13256;49.012;8.610;2022-07-29T02:40:09;19.80;99.90
25320;DHT22;13256;49.012;8.610;2022-07-29T02:42:38;19.70;99.90
25320;DHT22;13256;49.012;8.610;2022-07-29T02:45:10;19.60;99.90
25320;DHT22;13256;49.012;8.610;2022-07-29T02:47:47;19.50;99.90
25320;DHT22;13256;49.012;8.610;2022-07-29T02:50:37;19.40;99.90
25320;DHT22;13256;49.012;8.610;2022-07-29T02:53:25;19.30;99.90
25320;DHT22;13256;49.012;8.610;2022-07-29T02:56:06;19.20;99.90
25320;DHT22;13256;49.012;8.610;2022-07-29T02:58:38;19.10;99.90
25320;DHT22;13256;49.012;8.610;2022-07-29T03:01:12;19.00;99.90
25320;DHT22;13256;49.012;8.610;2022-07-29T03:03:50;19.10;99.90
25320;DHT22;13256;49.012;8.610;2022-07-29T03:06:20;19.00;99.90
25320;DHT22;13256;49.012;8.610;2022-07-29T03:09:10;19.00;99.90
25320;DHT22;13256;49.012;8.610;2022-07-29T03:11:41;19.00;99.90
25320;DHT22;13256;49.012;8.610;2022-07-29T03:14:18;18.90;99.90
25320;DHT22;13256;49.012;8.610;2022-07-29T03:16:46;18.90;99.90
25320;DHT22;13256;49.012;8.610;2022-07-29T03:19:15;18.90;99.90
25320;DHT22;13256;49.012;8.610;2022-07-29T03:21:44;19.00;99.90
25320;DHT22;13256;49.012;8.610;2022-07-29T03:24:29;19.00;99.90
25320;DHT22;13256;49.012;8.610;2022-07-29T03:26:57;19.10;99.90
25320;DHT22;13256;49.012;8.610;2022-07-29T03:29:26;19.10;99.90
25320;DHT22;13256;49.012;8.610;2022-07-29T03:32:02;19.20;99.90
25320;DHT22;13256;49.012;8.610;2022-07-29T03:34:32;19.20;99.90
25320;DHT22;13256;49.012;8.610;2022-07-29T03:36:59;19.20;99.90
25320;DHT22;13256;49.012;8.610;2022-07-29T03:39:54;19.30;99.90
25320;DHT22;13256;49.012;8.610;2022-07-29T03:42:35;19.30;99.90
25320;DHT22;13256;49.012;8.610;2022-07-29T03:45:12;19.30;99.90
25320;DHT22;13256;49.012;8.610;2022-07-29T03:47:44;19.30;99.90
25320;DHT22;13256;49.012;8.610;2022-07-29T03:50:22;19.20;99.90
25320;DHT22;13256;49.012;8.610;2022-07-29T03:52:50;19.10;99.90
25320;DHT22;13256;49.012;8.610;2022-07-29T03:55:23;19.10;99.90
25320;DHT22;13256;49.012;8.610;2022-07-29T03:57:52;19.10;99.90
25320;DHT22;13256;49.012;8.610;2022-07-29T04:00:23;19.10;99.90
25320;DHT22;13256;49.012;8.610;2022-07-29T04:02:55;19.20;99.90
25320;DHT22;13256;49.012;8.610;2022-07-29T04:05:24;19.20;99.90
25320;DHT22;13256;49.012;8.610;2022-07-29T04:07:51;19.30;99.90
25320;DHT22;13256;49.012;8.610;2022-07-29T04:10:20;19.30;99.90
25320;DHT22;13256;49.012;8.610;2022-07-29T04:12:59;19.40;99.90
25320;DHT22;13256;49.012;8.610;2022-07-29T04:15:34;19.40;99.90
25320;DHT22;13256;49.012;8.610;2022-07-29T04:18:09;19.40;99.90
25320;DHT22;13256;49.012;8.610;2022-07-29T04:20:40;19.30;99.90
25320;DHT22;13256;49.012;8.610;2022-07-29T04:23:08;19.20;99.90
25320;DHT22;13256;49.012;8.610;2022-07-29T04:25:42;19.00;99.90
25320;DHT22;13256;49.012;8.610;2022-07-29T04:28:10;19.00;99.90
25320;DHT22;13256;49.012;8.610;2022-07-29T04:30:41;18.90;99.90
25320;DHT22;13256;49.012;8.610;2022-07-29T04:33:11;18.90;99.90
25320;DHT22;13256;49.012;8.610;2022-07-29T04:35:39;18.90;99.90
25320;DHT22;13256;49.012;8.610;2022-07-29T04:38:20;19.00;99.90
25320;DHT22;13256;49.012;8.610;2022-07-29T04:40:51;19.00;99.90
25320;DHT22;13256;49.012;8.610;2022-07-29T04:43:21;19.00;99.90
25320;DHT22;13256;49.012;8.610;2022-07-29T04:45:52;19.10;99.90
25320;DHT22;13256;49.012;8.610;2022-07-29T04:48:19;19.10;99.90
25320;DHT22;13256;49.012;8.610;2022-07-29T04:51:03;19.10;99.90
25320;DHT22;13256;49.012;8.610;2022-07-29T04:53:46;19.00;99.90
25320;DHT22;13256;49.012;8.610;2022-07-29T04:56:18;19.00;99.90
25320;DHT22;13256;49.012;8.610;2022-07-29T04:58:57;19.00;99.90
25320;DHT22;13256;49.012;8.610;2022-07-29T05:01:25;19.00;99.90
25320;DHT22;13256;49.012;8.610;2022-07-29T05:03:57;19.10;99.90
25320;DHT22;13256;49.012;8.610;2022-07-29T05:06:57;19.20;99.90
25320;DHT22;13256;49.012;8.610;2022-07-29T05:09:25;19.30;99.90
25320;DHT22;13256;49.012;8.610;2022-07-29T05:11:55;19.30;99.90
25320;DHT22;13256;49.012;8.610;2022-07-29T05:14:25;19.40;99.90
25320;DHT22;13256;49.012;8.610;2022-07-29T05:17:29;19.40;99.90
25320;DHT22;13256;49.012;8.610;2022-07-29T05:19:58;19.40;99.90
25320;DHT22;13256;49.012;8.610;2022-07-29T05:22:28;19.40;99.90
25320;DHT22;13256;49.012;8.610;2022-07-29T05:24:55;19.50;99.90
25320;DHT22;13256;49.012;8.610;2022-07-29T05:27:24;19.50;99.90
25320;DHT22;13256;49.012;8.610;2022-07-29T05:29:58;19.60;99.90
25320;DHT22;13256;49.012;8.610;2022-07-29T05:32:25;19.60;99.90
25320;DHT22;13256;49.012;8.610;2022-07-29T05:34:56;19.60;99.90
25320;DHT22;13256;49.012;8.610;2022-07-29T05:37:25;19.70;99.90
25320;DHT22;13256;49.012;8.610;2022-07-29T05:39:51;19.70;99.90
25320;DHT22;13256;49.012;8.610;2022-07-29T05:42:25;19.80;99.90
25320;DHT22;13256;49.012;8.610;2022-07-29T05:44:53;19.80;99.90
25320;DHT22;13256;49.012;8.610;2022-07-29T05:47:20;19.90;99.90
25320;DHT22;13256;49.012;8.610;2022-07-29T05:49:49;20.00;99.90
25320;DHT22;13256;49.012;8.610;2022-07-29T05:52:17;20.10;99.90
25320;DHT22;13256;49.012;8.610;2022-07-29T05:54:47;20.20;99.90
25320;DHT22;13256;49.012;8.610;2022-07-29T05:57:21;20.30;99.90
25320;DHT22;13256;49.012;8.610;2022-07-29T05:59:50;20.40;99.90
25320;DHT22;13256;49.012;8.610;2022-07-29T06:02:24;20.50;99.90
25320;DHT22;13256;49.012;8.610;2022-07-29T06:04:51;20.50;99.90
25320;DHT22;13256;49.012;8.610;2022-07-29T06:07:20;20.60;99.90
25320;DHT22;13256;49.012;8.610;2022-07-29T06:09:49;20.70;99.90
25320;DHT22;13256;49.012;8.610;2022-07-29T06:12:18;20.80;99.90
25320;DHT22;13256;49.012;8.610;2022-07-29T06:14:48;20.90;99.90
25320;DHT22;13256;49.012;8.610;2022-07-29T06:17:22;21.00;99.90
25320;DHT22;13256;49.012;8.610;2022-07-29T06:19:52;21.10;99.90
25320;DHT22;13256;49.012;8.610;2022-07-29T06:22:20;21.20;99.90
25320;DHT22;13256;49.012;8.610;2022-07-29T06:24:48;21.20;99.90
25320;DHT22;13256;49.012;8.610;2022-07-29T06:27:41;21.30;99.90
25320;DHT22;13256;49.012;8.610;2022-07-29T06:30:12;21.40;99.90
25320;DHT22;13256;49.012;8.610;2022-07-29T06:32:41;21.50;99.90
25320;DHT22;13256;49.012;8.610;2022-07-29T06:35:12;21.60;99.90
25320;DHT22;13256;49.012;8.610;2022-07-29T06:38:03;21.60;99.90
25320;DHT22;13256;49.012;8.610;2022-07-29T06:40:50;21.70;99.90
25320;DHT22;13256;49.012;8.610;2022-07-29T06:46:21;21.70;99.90
25320;DHT22;13256;49.012;8.610;2022-07-29T06:48:51;21.70;99.90
25320;DHT22;13256;49.012;8.610;2022-07-29T06:51:23;21.80;99.90
25320;DHT22;13256;49.012;8.610;2022-07-29T06:53:51;21.90;99.90
25320;DHT22;13256;49.012;8.610;2022-07-29T06:56:31;22.00;99.90
25320;DHT22;13256;49.012;8.610;2022-07-29T06:59:11;22.10;99.90
25320;DHT22;13256;49.012;8.610;2022-07-29T07:01:42;22.20;99.90
25320;DHT22;13256;49.012;8.610;2022-07-29T07:04:17;22.30;99.90
25320;DHT22;13256;49.012;8.610;2022-07-29T07:06:50;22.30;99.90
25320;DHT22;13256;49.012;8.610;2022-07-29T07:09:18;22.40;99.90
25320;DHT22;13256;49.012;8.610;2022-07-29T07:11:50;22.40;99.90
25320;DHT22;13256;49.012;8.610;2022-07-29T07:14:17;22.50;99.90
25320;DHT22;13256;49.012;8.610;2022-07-29T07:16:44;22.50;99.90
25320;DHT22;13256;49.012;8.610;2022-07-29T07:19:12;22.60;99.90
25320;DHT22;13256;49.012;8.610;2022-07-29T07:21:44;22.60;99.90
25320;DHT22;13256;49.012;8.610;2022-07-29T07:24:15;22.70;99.90
25320;DHT22;13256;49.012;8.610;2022-07-29T07:26:48;22.80;99.90
25320;DHT22;13256;49.012;8.610;2022-07-29T07:29:17;22.90;99.90
25320;DHT22;13256;49.012;8.610;2022-07-29T07:35:27;23.00;99.90
25320;DHT22;13256;49.012;8.610;2022-07-29T07:37:58;23.20;99.90
25320;DHT22;13256;49.012;8.610;2022-07-29T07:40:26;23.40;99.90
25320;DHT22;13256;49.012;8.610;2022-07-29T07:42:56;23.50;99.90
25320;DHT22;13256;49.012;8.610;2022-07-29T07:45:31;23.40;99.90
25320;DHT22;13256;49.012;8.610;2022-07-29T07:48:00;23.30;99.90
25320;DHT22;13256;49.012;8.610;2022-07-29T07:50:27;23.40;99.90
25320;DHT22;13256;49.012;8.610;2022-07-29T07:52:55;23.40;99.90
25320;DHT22;13256;49.012;8.610;2022-07-29T07:55:49;23.50;99.90
25320;DHT22;13256;49.012;8.610;2022-07-29T07:58:36;23.80;99.90
25320;DHT22;13256;49.012;8.610;2022-07-29T08:01:29;24.00;99.90
25320;DHT22;13256;49.012;8.610;2022-07-29T08:04:20;24.30;99.90
25320;DHT22;13256;49.012;8.610;2022-07-29T08:06:55;24.50;99.90
25320;DHT22;13256;49.012;8.610;2022-07-29T08:09:47;24.50;99.90
25320;DHT22;13256;49.012;8.610;2022-07-29T08:12:18;24.60;99.90
25320;DHT22;13256;49.012;8.610;2022-07-29T08:14:48;24.70;99.90
25320;DHT22;13256;49.012;8.610;2022-07-29T08:17:14;24.70;99.90
25320;DHT22;13256;49.012;8.610;2022-07-29T08:19:43;24.90;99.90
25320;DHT22;13256;49.012;8.610;2022-07-29T08:22:15;25.20;99.90
25320;DHT22;13256;49.012;8.610;2022-07-29T08:24:45;25.20;99.90
25320;DHT22;13256;49.012;8.610;2022-07-29T08:27:43;25.10;99.90
25320;DHT22;13256;49.012;8.610;2022-07-29T08:30:12;25.00;99.90
25320;DHT22;13256;49.012;8.610;2022-07-29T08:32:39;25.00;99.90
25320;DHT22;13256;49.012;8.610;2022-07-29T08:35:51;25.00;99.90
25320;DHT22;13256;49.012;8.610;2022-07-29T08:38:20;25.10;99.90
25320;DHT22;13256;49.012;8.610;2022-07-29T08:40:54;25.40;99.90
25320;DHT22;13256;49.012;8.610;2022-07-29T08:43:22;25.70;99.90
25320;DHT22;13256;49.012;8.610;2022-07-29T08:45:51;25.90;99.90
25320;DHT22;13256;49.012;8.610;2022-07-29T08:48:20;26.00;99.90
25320;DHT22;13256;49.012;8.610;2022-07-29T08:50:54;26.10;99.90
25320;DHT22;13256;49.012;8.610;2022-07-29T08:53:26;26.20;99.90
25320;DHT22;13256;49.012;8.610;2022-07-29T08:55:53;26.40;99.90
25320;DHT22;13256;49.012;8.610;2022-07-29T08:58:21;26.50;99.10
25320;DHT22;13256;49.012;8.610;2022-07-29T09:00:56;26.60;99.10
25320;DHT22;13256;49.012;8.610;2022-07-29T09:03:29;26.80;99.10
25320;DHT22;13256;49.012;8.610;2022-07-29T09:05:59;26.80;97.70
25320;DHT22;13256;49.012;8.610;2022-07-29T09:08:26;26.70;95.90
25320;DHT22;13256;49.012;8.610;2022-07-29T09:10:55;26.40;95.70
25320;DHT22;13256;49.012;8.610;2022-07-29T09:13:38;26.20;96.60
25320;DHT22;13256;49.012;8.610;2022-07-29T09:16:10;26.00;97.10
25320;DHT22;13256;49.012;8.610;2022-07-29T09:18:42;26.10;97.20
25320;DHT22;13256;49.012;8.610;2022-07-29T09:21:15;26.30;96.70
25320;DHT22;13256;49.012;8.610;2022-07-29T09:24:04;26.50;95.30
25320;DHT22;13256;49.012;8.610;2022-07-29T09:26:33;26.80;95.20
25320;DHT22;13256;49.012;8.610;2022-07-29T09:29:08;27.20;95.00
25320;DHT22;13256;49.012;8.610;2022-07-29T09:31:40;27.50;94.70
25320;DHT22;13256;49.012;8.610;2022-07-29T09:34:09;27.70;93.40
25320;DHT22;13256;49.012;8.610;2022-07-29T09:36:41;27.90;93.20
25320;DHT22;13256;49.012;8.610;2022-07-29T09:39:08;28.20;92.30
25320;DHT22;13256;49.012;8.610;2022-07-29T09:41:46;28.10;90.80
25320;DHT22;13256;49.012;8.610;2022-07-29T09:50:20;28.50;90.00
25320;DHT22;13256;49.012;8.610;2022-07-29T09:52:52;28.60;90.00
25320;DHT22;13256;49.012;8.610;2022-07-29T09:55:23;28.80;88.40
25320;DHT22;13256;49.012;8.610;2022-07-29T09:58:19;29.10;89.70
25320;DHT22;13256;49.012;8.610;2022-07-29T10:00:49;29.40;86.00
25320;DHT22;13256;49.012;8.610;2022-07-29T10:03:18;29.50;85.00
25320;DHT22;13256;49.012;8.610;2022-07-29T10:06:10;29.60;82.70
25320;DHT22;13256;49.012;8.610;2022-07-29T10:08:38;29.70;84.40
25320;DHT22;13256;49.012;8.610;2022-07-29T10:11:11;29.60;81.60
25320;DHT22;13256;49.012;8.610;2022-07-29T10:13:38;29.70;84.10
25320;DHT22;13256;49.012;8.610;2022-07-29T10:16:08;29.80;81.00
25320;DHT22;13256;49.012;8.610;2022-07-29T10:18:42;29.70;80.10
25320;DHT22;13256;49.012;8.610;2022-07-29T10:21:12;30.00;81.10
25320;DHT22;13256;49.012;8.610;2022-07-29T10:24:00;30.00;79.10
25320;DHT22;13256;49.012;8.610;2022-07-29T10:26:29;29.80;79.40
25320;DHT22;13256;49.012;8.610;2022-07-29T10:29:04;29.40;77.00
25320;DHT22;13256;49.012;8.610;2022-07-29T10:35:15;28.90;80.10
25320;DHT22;13256;49.012;8.610;2022-07-29T10:46:39;29.20;80.80
25320;DHT22;13256;49.012;8.610;2022-07-29T10:49:20;29.40;79.20
25320;DHT22;13256;49.012;8.610;2022-07-29T10:52:06;29.60;78.10
25320;DHT22;13256;49.012;8.610;2022-07-29T10:54:39;30.00;76.70
25320;DHT22;13256;49.012;8.610;2022-07-29T10:59:43;30.60;76.10
25320;DHT22;13256;49.012;8.610;2022-07-29T11:02:41;31.10;73.00
25320;DHT22;13256;49.012;8.610;2022-07-29T11:05:17;31.50;75.50
25320;DHT22;13256;49.012;8.610;2022-07-29T11:11:52;31.80;68.80
25320;DHT22;13256;49.012;8.610;2022-07-29T11:13:58;31.50;72.10
25320;DHT22;13256;49.012;8.610;2022-07-29T11:16:58;31.50;70.80
25320;DHT22;13256;49.012;8.610;2022-07-29T11:19:32;32.10;68.70
25320;DHT22;13256;49.012;8.610;2022-07-29T11:22:01;32.60;66.20
25320;DHT22;13256;49.012;8.610;2022-07-29T11:24:32;33.00;64.60
25320;DHT22;13256;49.012;8.610;2022-07-29T11:27:19;33.40;63.90
25320;DHT22;13256;49.012;8.610;2022-07-29T11:29:58;33.80;61.70
25320;DHT22;13256;49.012;8.610;2022-07-29T11:32:49;33.50;57.90
25320;DHT22;13256;49.012;8.610;2022-07-29T11:36:00;33.40;60.50
25320;DHT22;13256;49.012;8.610;2022-07-29T11:38:32;33.50;60.20
25320;DHT22;13256;49.012;8.610;2022-07-29T11:43:57;33.70;60.50
25320;DHT22;13256;49.012;8.610;2022-07-29T11:46:49;33.50;58.70
25320;DHT22;13256;49.012;8.610;2022-07-29T11:49:26;33.60;59.50
25320;DHT22;13256;49.012;8.610;2022-07-29T11:52:13;33.60;58.10
25320;DHT22;13256;49.012;8.610;2022-07-29T11:54:44;33.30;59.50
25320;DHT22;13256;49.012;8.610;2022-07-29T11:57:25;32.80;59.80
25320;DHT22;13256;49.012;8.610;2022-07-29T12:06:51;31.70;60.80
25320;DHT22;13256;49.012;8.610;2022-07-29T12:09:19;31.50;61.50
25320;DHT22;13256;49.012;8.610;2022-07-29T12:11:56;31.50;63.00
25320;DHT22;13256;49.012;8.610;2022-07-29T12:14:32;31.60;62.80
25320;DHT22;13256;49.012;8.610;2022-07-29T12:17:00;31.60;62.90
25320;DHT22;13256;49.012;8.610;2022-07-29T12:19:43;31.80;63.00
25320;DHT22;13256;49.012;8.610;2022-07-29T12:22:11;31.70;61.30
25320;DHT22;13256;49.012;8.610;2022-07-29T12:24:44;31.60;61.60
25320;DHT22;13256;49.012;8.610;2022-07-29T12:27:17;31.60;61.50
25320;DHT22;13256;49.012;8.610;2022-07-29T12:29:44;31.50;61.20
25320;DHT22;13256;49.012;8.610;2022-07-29T12:32:15;31.10;61.60
25320;DHT22;13256;49.012;8.610;2022-07-29T12:34:46;31.00;61.20
25320;DHT22;13256;49.012;8.610;2022-07-29T12:37:16;31.10;62.30
25320;DHT22;13256;49.012;8.610;2022-07-29T12:39:43;31.10;62.60
25320;DHT22;13256;49.012;8.610;2022-07-29T12:42:13;31.10;62.30
25320;DHT22;13256;49.012;8.610;2022-07-29T12:44:48;31.00;62.10
25320;DHT22;13256;49.012;8.610;2022-07-29T12:47:16;30.80;62.10
25320;DHT22;13256;49.012;8.610;2022-07-29T12:49:44;30.60;63.10
25320;DHT22;13256;49.012;8.610;2022-07-29T12:54:57;30.80;63.50
25320;DHT22;13256;49.012;8.610;2022-07-29T12:57:27;30.90;64.00
25320;DHT22;13256;49.012;8.610;2022-07-29T13:00:10;31.00;62.70
25320;DHT22;13256;49.012;8.610;2022-07-29T13:02:55;30.90;62.80
25320;DHT22;13256;49.012;8.610;2022-07-29T13:05:39;30.90;61.70
25320;DHT22;13256;49.012;8.610;2022-07-29T13:08:25;31.00;62.10
25320;DHT22;13256;49.012;8.610;2022-07-29T13:10:55;31.10;62.30
25320;DHT22;13256;49.012;8.610;2022-07-29T13:13:21;31.10;62.20
25320;DHT22;13256;49.012;8.610;2022-07-29T13:16:05;31.10;61.00
25320;DHT22;13256;49.012;8.610;2022-07-29T13:18:35;31.10;60.30
25320;DHT22;13256;49.012;8.610;2022-07-29T13:21:12;31.10;60.30
25320;DHT22;13256;49.012;8.610;2022-07-29T13:23:42;31.10;59.90
25320;DHT22;13256;49.012;8.610;2022-07-29T13:26:10;31.10;58.90
25320;DHT22;13256;49.012;8.610;2022-07-29T13:28:41;31.00;59.60
25320;DHT22;13256;49.012;8.610;2022-07-29T13:31:10;31.00;60.70
25320;DHT22;13256;49.012;8.610;2022-07-29T13:33:37;31.10;60.60
25320;DHT22;13256;49.012;8.610;2022-07-29T13:36:04;31.10;59.50
25320;DHT22;13256;49.012;8.610;2022-07-29T13:38:32;31.10;60.30
25320;DHT22;13256;49.012;8.610;2022-07-29T13:40:59;31.30;60.90
25320;DHT22;13256;49.012;8.610;2022-07-29T13:43:26;31.50;60.80
25320;DHT22;13256;49.012;8.610;2022-07-29T13:45:55;31.60;59.50
25320;DHT22;13256;49.012;8.610;2022-07-29T13:48:23;31.60;58.50
25320;DHT22;13256;49.012;8.610;2022-07-29T13:50:51;31.40;58.00
25320;DHT22;13256;49.012;8.610;2022-07-29T13:53:23;31.00;56.90
25320;DHT22;13256;49.012;8.610;2022-07-29T13:55:53;31.00;58.80
25320;DHT22;13256;49.012;8.610;2022-07-29T13:58:24;31.10;58.90
25320;DHT22;13256;49.012;8.610;2022-07-29T14:00:53;31.20;58.80
25320;DHT22;13256;49.012;8.610;2022-07-29T14:03:31;31.20;57.90
25320;DHT22;13256;49.012;8.610;2022-07-29T14:05:58;31.30;58.30
25320;DHT22;13256;49.012;8.610;2022-07-29T14:08:27;31.00;56.60
25320;DHT22;13256;49.012;8.610;2022-07-29T14:10:54;30.80;56.90
25320;DHT22;13256;49.012;8.610;2022-07-29T14:13:23;30.70;57.70
25320;DHT22;13256;49.012;8.610;2022-07-29T14:15:52;30.70;56.70
25320;DHT22;13256;49.012;8.610;2022-07-29T14:18:20;30.70;57.80
25320;DHT22;13256;49.012;8.610;2022-07-29T14:20:46;30.40;56.50
25320;DHT22;13256;49.012;8.610;2022-07-29T14:23:16;30.30;58.00
25320;DHT22;13256;49.012;8.610;2022-07-29T14:25:51;30.10;56.80
25320;DHT22;13256;49.012;8.610;2022-07-29T14:28:20;30.20;59.20
25320;DHT22;13256;49.012;8.610;2022-07-29T14:30:52;30.50;59.10
25320;DHT22;13256;49.012;8.610;2022-07-29T14:33:47;30.80;57.70
25320;DHT22;13256;49.012;8.610;2022-07-29T14:36:17;31.10;57.50
25320;DHT22;13256;49.012;8.610;2022-07-29T14:38:45;31.30;56.20
25320;DHT22;13256;49.012;8.610;2022-07-29T14:41:13;31.10;56.30
25320;DHT22;13256;49.012;8.610;2022-07-29T14:43:43;31.00;57.20
25320;DHT22;13256;49.012;8.610;2022-07-29T14:46:09;31.00;56.60
25320;DHT22;13256;49.012;8.610;2022-07-29T14:48:42;31.10;56.60
25320;DHT22;13256;49.012;8.610;2022-07-29T14:51:13;31.10;56.30
25320;DHT22;13256;49.012;8.610;2022-07-29T14:53:40;31.10;55.50
25320;DHT22;13256;49.012;8.610;2022-07-29T14:56:07;31.00;56.30
25320;DHT22;13256;49.012;8.610;2022-07-29T14:58:56;30.80;56.50
25320;DHT22;13256;49.012;8.610;2022-07-29T15:01:26;30.80;56.90
25320;DHT22;13256;49.012;8.610;2022-07-29T15:03:56;30.80;56.80
25320;DHT22;13256;49.012;8.610;2022-07-29T15:06:31;30.60;55.80
25320;DHT22;13256;49.012;8.610;2022-07-29T15:08:58;30.30;57.10
25320;DHT22;13256;49.012;8.610;2022-07-29T15:11:24;30.10;56.80
25320;DHT22;13256;49.012;8.610;2022-07-29T15:13:51;30.10;58.10
25320;DHT22;13256;49.012;8.610;2022-07-29T15:16:18;30.30;57.90
25320;DHT22;13256;49.012;8.610;2022-07-29T15:18:48;30.30;56.80
25320;DHT22;13256;49.012;8.610;2022-07-29T15:21:15;30.40;56.50
25320;DHT22;13256;49.012;8.610;2022-07-29T15:23:44;30.50;56.40
25320;DHT22;13256;49.012;8.610;2022-07-29T15:26:10;30.50;55.90
25320;DHT22;13256;49.012;8.610;2022-07-29T15:28:39;30.30;55.70
25320;DHT22;13256;49.012;8.610;2022-07-29T15:31:06;30.30;55.90
25320;DHT22;13256;49.012;8.610;2022-07-29T15:33:46;30.20;54.50
25320;DHT22;13256;49.012;8.610;2022-07-29T15:36:31;30.00;56.30
25320;DHT22;13256;49.012;8.610;2022-07-29T15:39:21;29.60;54.30
25320;DHT22;13256;49.012;8.610;2022-07-29T15:41:51;29.50;55.90
25320;DHT22;13256;49.012;8.610;2022-07-29T15:44:19;29.30;55.60
25320;DHT22;13256;49.012;8.610;2022-07-29T15:46:49;29.30;56.60
25320;DHT22;13256;49.012;8.610;2022-07-29T15:49:43;29.30;56.00
25320;DHT22;13256;49.012;8.610;2022-07-29T15:52:19;29.30;57.40
25320;DHT22;13256;49.012;8.610;2022-07-29T15:54:59;29.20;54.30
25320;DHT22;13256;49.012;8.610;2022-07-29T15:57:28;29.00;53.60
25320;DHT22;13256;49.012;8.610;2022-07-29T15:59:57;28.80;54.20
25320;DHT22;13256;49.012;8.610;2022-07-29T16:02:24;28.80;53.90
25320;DHT22;13256;49.012;8.610;2022-07-29T16:04:51;28.80;53.70
25320;DHT22;13256;49.012;8.610;2022-07-29T16:07:20;28.80;54.20
25320;DHT22;13256;49.012;8.610;2022-07-29T16:09:51;28.90;55.30
25320;DHT22;13256;49.012;8.610;2022-07-29T16:12:22;28.80;54.40
25320;DHT22;13256;49.012;8.610;2022-07-29T16:14:49;28.80;54.40
25320;DHT22;13256;49.012;8.610;2022-07-29T16:17:21;28.60;54.40
25320;DHT22;13256;49.012;8.610;2022-07-29T16:19:49;28.60;56.30
25320;DHT22;13256;49.012;8.610;2022-07-29T16:22:16;28.70;54.90
25320;DHT22;13256;49.012;8.610;2022-07-29T16:24:43;28.70;55.10
25320;DHT22;13256;49.012;8.610;2022-07-29T16:27:10;28.80;55.20
25320;DHT22;13256;49.012;8.610;2022-07-29T16:29:40;28.80;54.30
25320;DHT22;13256;49.012;8.610;2022-07-29T16:32:07;28.90;55.00
25320;DHT22;13256;49.012;8.610;2022-07-29T16:34:34;28.80;54.80
25320;DHT22;13256;49.012;8.610;2022-07-29T16:37:05;28.70;54.60
25320;DHT22;13256;49.012;8.610;2022-07-29T16:39:41;28.70;56.20
25320;DHT22;13256;49.012;8.610;2022-07-29T16:42:08;28.70;55.30
25320;DHT22;13256;49.012;8.610;2022-07-29T16:44:37;28.70;54.50
25320;DHT22;13256;49.012;8.610;2022-07-29T16:47:04;28.70;54.30
25320;DHT22;13256;49.012;8.610;2022-07-29T16:49:34;28.60;53.80
25320;DHT22;13256;49.012;8.610;2022-07-29T16:52:01;28.60;54.90
25320;DHT22;13256;49.012;8.610;2022-07-29T16:54:28;28.50;55.60
25320;DHT22;13256;49.012;8.610;2022-07-29T16:56:55;28.50;55.40
25320;DHT22;13256;49.012;8.610;2022-07-29T16:59:22;28.40;54.10
25320;DHT22;13256;49.012;8.610;2022-07-29T17:01:52;28.20;55.20
25320;DHT22;13256;49.012;8.610;2022-07-29T17:04:18;28.10;54.30
25320;DHT22;13256;49.012;8.610;2022-07-29T17:06:46;28.00;54.80
25320;DHT22;13256;49.012;8.610;2022-07-29T17:09:15;27.90;55.60
25320;DHT22;13256;49.012;8.610;2022-07-29T17:11:42;28.00;56.10
25320;DHT22;13256;49.012;8.610;2022-07-29T17:14:29;27.90;55.90
25320;DHT22;13256;49.012;8.610;2022-07-29T17:17:04;27.90;56.70
25320;DHT22;13256;49.012;8.610;2022-07-29T17:19:42;27.90;56.70